sensor_id;sensor_type;location;lat;lon;timestamp;P1;durP1;ratioP1;P2;durP2;ratioP2
4051;SDS011;2040;50.924;11.604;2024-02-21T00:00:45;6.73;;;2.47;;
4051;SDS011;2040;50.924;11.604;2024-02-21T00:03:11;10.00;;;2.93;;
4051;SDS011;2040;50.924;11.604;2024-02-21T00:05:37;3.97;;;2.10;;
4051;SDS011;2040;50.924;11.604;2024-02-21T00:08:02;14.27;;;3.40;;
4051;SDS011;2040;50.924;11.604;2024-02-21T00:10:28;9.23;;;2.77;;
4051;SDS011;2040;50.924;11.604;2024-02-21T00:12:54;4.20;;;1.90;;
4051;SDS011;2040;50.924;11.604;2024-02-21T00:15:19;9.43;;;2.70;;
4051;SDS011;2040;50.924;11.604;2024-02-21T00:17:46;15.13;;;2.30;;
4051;SDS011;2040;50.924;11.604;2024-02-21T00:20:12;8.77;;;2.57;;
4051;SDS011;2040;50.924;11.604;2024-02-21T00:22:38;9.80;;;2.43;;
4051;SDS011;2040;50.924;11.604;2024-02-21T00:25:04;8.53;;;2.60;;
4051;SDS011;2040;50.924;11.604;2024-02-21T00:27:29;13.03;;;3.27;;
4051;SDS011;2040;50.924;11.604;2024-02-21T00:29:56;8.03;;;1.53;;
4051;SDS011;2040;50.924;11.604;2024-02-21T00:32:21;15.10;;;1.97;;
4051;SDS011;2040;50.924;11.604;2024-02-21T00:34:47;12.30;;;3.80;;
4051;SDS011;2040;50.924;11.604;2024-02-21T00:37:12;6.20;;;3.40;;
4051;SDS011;2040;50.924;11.604;2024-02-21T00:39:38;7.40;;;2.80;;
4051;SDS011;2040;50.924;11.604;2024-02-21T00:42:03;9.30;;;2.47;;
4051;SDS011;2040;50.924;11.604;2024-02-21T00:44:29;10.43;;;2.63;;
4051;SDS011;2040;50.924;11.604;2024-02-21T00:46:55;18.40;;;4.43;;
4051;SDS011;2040;50.924;11.604;2024-02-21T00:49:20;8.27;;;2.37;;
4051;SDS011;2040;50.924;11.604;2024-02-21T00:51:46;10.17;;;2.83;;
4051;SDS011;2040;50.924;11.604;2024-02-21T00:54:12;13.93;;;2.60;;
4051;SDS011;2040;50.924;11.604;2024-02-21T00:56:38;11.80;;;3.07;;
4051;SDS011;2040;50.924;11.604;2024-02-21T00:59:03;10.20;;;3.20;;
4051;SDS011;2040;50.924;11.604;2024-02-21T01:01:29;13.13;;;2.60;;
4051;SDS011;2040;50.924;11.604;2024-02-21T01:03:54;8.53;;;2.93;;
4051;SDS011;2040;50.924;11.604;2024-02-21T01:06:20;9.77;;;2.80;;
4051;SDS011;2040;50.924;11.604;2024-02-21T01:08:46;17.67;;;2.77;;
4051;SDS011;2040;50.924;11.604;2024-02-21T01:11:13;7.17;;;2.40;;
4051;SDS011;2040;50.924;11.604;2024-02-21T01:13:39;3.30;;;2.00;;
4051;SDS011;2040;50.924;11.604;2024-02-21T01:16:05;7.23;;;3.20;;
4051;SDS011;2040;50.924;11.604;2024-02-21T01:18:32;5.20;;;2.80;;
4051;SDS011;2040;50.924;11.604;2024-02-21T01:20:58;9.27;;;3.30;;
4051;SDS011;2040;50.924;11.604;2024-02-21T01:23:24;6.73;;;2.33;;
4051;SDS011;2040;50.924;11.604;2024-02-21T01:25:49;6.17;;;3.17;;
4051;SDS011;2040;50.924;11.604;2024-02-21T01:28:16;14.47;;;2.87;;
4051;SDS011;2040;50.924;11.604;2024-02-21T01:30:41;2.70;;;2.27;;
4051;SDS011;2040;50.924;11.604;2024-02-21T01:33:07;6.97;;;2.23;;
4051;SDS011;2040;50.924;11.604;2024-02-21T01:35:32;10.97;;;3.53;;
4051;SDS011;2040;50.924;11.604;2024-02-21T01:37:59;11.83;;;3.47;;
4051;SDS011;2040;50.924;11.604;2024-02-21T01:40:24;4.83;;;2.33;;
4051;SDS011;2040;50.924;11.604;2024-02-21T01:42:50;7.53;;;2.90;;
4051;SDS011;2040;50.924;11.604;2024-02-21T01:45:15;9.63;;;3.03;;
4051;SDS011;2040;50.924;11.604;2024-02-21T01:47:41;11.33;;;2.60;;
4051;SDS011;2040;50.924;11.604;2024-02-21T01:50:07;11.80;;;2.77;;
4051;SDS011;2040;50.924;11.604;2024-02-21T01:52:33;6.77;;;2.13;;
4051;SDS011;2040;50.924;11.604;2024-02-21T01:55:00;7.70;;;2.83;;
4051;SDS011;2040;50.924;11.604;2024-02-21T01:57:26;22.50;;;3.00;;
4051;SDS011;2040;50.924;11.604;2024-02-21T01:59:53;6.57;;;2.30;;
4051;SDS011;2040;50.924;11.604;2024-02-21T02:02:19;7.70;;;2.97;;
4051;SDS011;2040;50.924;11.604;2024-02-21T02:04:45;9.47;;;3.00;;
4051;SDS011;2040;50.924;11.604;2024-02-21T02:07:11;3.40;;;2.20;;
4051;SDS011;2040;50.924;11.604;2024-02-21T02:09:36;10.90;;;2.33;;
4051;SDS011;2040;50.924;11.604;2024-02-21T02:12:02;5.60;;;2.63;;
4051;SDS011;2040;50.924;11.604;2024-02-21T02:14:28;9.93;;;2.43;;
4051;SDS011;2040;50.924;11.604;2024-02-21T02:16:53;9.40;;;2.23;;
4051;SDS011;2040;50.924;11.604;2024-02-21T02:19:19;7.70;;;2.80;;
4051;SDS011;2040;50.924;11.604;2024-02-21T02:21:49;12.23;;;3.03;;
4051;SDS011;2040;50.924;11.604;2024-02-21T02:24:20;13.20;;;2.80;;
4051;SDS011;2040;50.924;11.604;2024-02-21T02:26:47;6.47;;;3.37;;
4051;SDS011;2040;50.924;11.604;2024-02-21T02:29:12;6.63;;;2.80;;
4051;SDS011;2040;50.924;11.604;2024-02-21T02:31:38;9.20;;;3.00;;
4051;SDS011;2040;50.924;11.604;2024-02-21T02:34:03;5.97;;;3.30;;
4051;SDS011;2040;50.924;11.604;2024-02-21T02:36:31;6.93;;;2.40;;
4051;SDS011;2040;50.924;11.604;2024-02-21T02:38:58;9.33;;;2.23;;
4051;SDS011;2040;50.924;11.604;2024-02-21T02:41:23;12.00;;;2.90;;
4051;SDS011;2040;50.924;11.604;2024-02-21T02:43:49;15.13;;;2.80;;
4051;SDS011;2040;50.924;11.604;2024-02-21T02:46:14;7.60;;;2.93;;
4051;SDS011;2040;50.924;11.604;2024-02-21T02:48:40;13.70;;;2.97;;
4051;SDS011;2040;50.924;11.604;2024-02-21T02:51:05;9.47;;;3.20;;
4051;SDS011;2040;50.924;11.604;2024-02-21T02:53:31;7.20;;;2.73;;
4051;SDS011;2040;50.924;11.604;2024-02-21T02:55:56;10.33;;;3.03;;
4051;SDS011;2040;50.924;11.604;2024-02-21T02:58:22;5.07;;;2.40;;
4051;SDS011;2040;50.924;11.604;2024-02-21T03:00:48;7.47;;;3.33;;
4051;SDS011;2040;50.924;11.604;2024-02-21T03:03:13;8.23;;;2.40;;
4051;SDS011;2040;50.924;11.604;2024-02-21T03:05:39;18.20;;;3.20;;
4051;SDS011;2040;50.924;11.604;2024-02-21T03:08:05;7.27;;;3.00;;
4051;SDS011;2040;50.924;11.604;2024-02-21T03:10:35;6.70;;;2.70;;
4051;SDS011;2040;50.924;11.604;2024-02-21T03:13:01;9.77;;;3.37;;
4051;SDS011;2040;50.924;11.604;2024-02-21T03:15:26;7.10;;;3.53;;
4051;SDS011;2040;50.924;11.604;2024-02-21T03:17:52;9.83;;;3.33;;
4051;SDS011;2040;50.924;11.604;2024-02-21T03:20:17;12.57;;;3.40;;
4051;SDS011;2040;50.924;11.604;2024-02-21T03:22:44;8.83;;;2.50;;
4051;SDS011;2040;50.924;11.604;2024-02-21T03:25:10;8.17;;;3.00;;
4051;SDS011;2040;50.924;11.604;2024-02-21T03:27:37;8.60;;;3.47;;
4051;SDS011;2040;50.924;11.604;2024-02-21T03:30:03;5.40;;;2.93;;
4051;SDS011;2040;50.924;11.604;2024-02-21T03:32:29;12.50;;;3.50;;
4051;SDS011;2040;50.924;11.604;2024-02-21T03:34:55;7.00;;;3.17;;
4051;SDS011;2040;50.924;11.604;2024-02-21T03:37:21;5.90;;;2.97;;
4051;SDS011;2040;50.924;11.604;2024-02-21T03:39:46;9.83;;;2.70;;
4051;SDS011;2040;50.924;11.604;2024-02-21T03:42:12;8.60;;;2.30;;
4051;SDS011;2040;50.924;11.604;2024-02-21T03:44:38;7.37;;;3.17;;
4051;SDS011;2040;50.924;11.604;2024-02-21T03:47:04;11.73;;;3.20;;
4051;SDS011;2040;50.924;11.604;2024-02-21T03:49:29;8.17;;;3.03;;
4051;SDS011;2040;50.924;11.604;2024-02-21T03:51:55;6.80;;;3.03;;
4051;SDS011;2040;50.924;11.604;2024-02-21T03:54:21;4.43;;;2.43;;
4051;SDS011;2040;50.924;11.604;2024-02-21T03:56:46;10.67;;;3.20;;
4051;SDS011;2040;50.924;11.604;2024-02-21T03:59:15;12.93;;;2.90;;
4051;SDS011;2040;50.924;11.604;2024-02-21T04:01:41;9.23;;;2.97;;
4051;SDS011;2040;50.924;11.604;2024-02-21T04:04:06;9.60;;;2.73;;
4051;SDS011;2040;50.924;11.604;2024-02-21T04:06:32;5.23;;;3.50;;
4051;SDS011;2040;50.924;11.604;2024-02-21T04:08:58;13.03;;;3.47;;
4051;SDS011;2040;50.924;11.604;2024-02-21T04:11:23;14.03;;;3.10;;
4051;SDS011;2040;50.924;11.604;2024-02-21T04:13:49;10.10;;;2.93;;
4051;SDS011;2040;50.924;11.604;2024-02-21T04:16:15;5.63;;;3.03;;
4051;SDS011;2040;50.924;11.604;2024-02-21T04:18:42;4.70;;;3.33;;
4051;SDS011;2040;50.924;11.604;2024-02-21T04:21:08;11.40;;;3.10;;
4051;SDS011;2040;50.924;11.604;2024-02-21T04:23:34;9.73;;;2.70;;
4051;SDS011;2040;50.924;11.604;2024-02-21T04:26:00;12.13;;;3.40;;
4051;SDS011;2040;50.924;11.604;2024-02-21T04:28:25;8.07;;;3.10;;
4051;SDS011;2040;50.924;11.604;2024-02-21T04:30:51;7.97;;;2.33;;
4051;SDS011;2040;50.924;11.604;2024-02-21T04:33:16;8.63;;;3.13;;
4051;SDS011;2040;50.924;11.604;2024-02-21T04:35:42;11.23;;;3.80;;
4051;SDS011;2040;50.924;11.604;2024-02-21T04:38:07;5.50;;;2.17;;
4051;SDS011;2040;50.924;11.604;2024-02-21T04:40:33;3.80;;;2.23;;
4051;SDS011;2040;50.924;11.604;2024-02-21T04:42:58;4.20;;;2.73;;
4051;SDS011;2040;50.924;11.604;2024-02-21T04:45:24;5.20;;;3.00;;
4051;SDS011;2040;50.924;11.604;2024-02-21T04:47:49;3.60;;;2.33;;
4051;SDS011;2040;50.924;11.604;2024-02-21T04:50:15;7.03;;;2.57;;
4051;SDS011;2040;50.924;11.604;2024-02-21T04:52:41;5.60;;;3.30;;
4051;SDS011;2040;50.924;11.604;2024-02-21T04:55:06;6.67;;;3.03;;
4051;SDS011;2040;50.924;11.604;2024-02-21T04:57:33;12.70;;;2.67;;
4051;SDS011;2040;50.924;11.604;2024-02-21T04:59:58;8.07;;;2.97;;
4051;SDS011;2040;50.924;11.604;2024-02-21T05:02:24;5.43;;;3.00;;
4051;SDS011;2040;50.924;11.604;2024-02-21T05:04:49;6.63;;;2.63;;
4051;SDS011;2040;50.924;11.604;2024-02-21T05:07:15;8.70;;;3.17;;
4051;SDS011;2040;50.924;11.604;2024-02-21T05:09:44;9.50;;;2.80;;
4051;SDS011;2040;50.924;11.604;2024-02-21T05:12:10;10.90;;;2.80;;
4051;SDS011;2040;50.924;11.604;2024-02-21T05:14:35;5.73;;;3.00;;
4051;SDS011;2040;50.924;11.604;2024-02-21T05:17:01;8.20;;;3.40;;
4051;SDS011;2040;50.924;11.604;2024-02-21T05:19:26;8.37;;;3.10;;
4051;SDS011;2040;50.924;11.604;2024-02-21T05:21:52;5.57;;;3.47;;
4051;SDS011;2040;50.924;11.604;2024-02-21T05:24:17;4.37;;;2.73;;
4051;SDS011;2040;50.924;11.604;2024-02-21T05:26:43;9.60;;;3.23;;
4051;SDS011;2040;50.924;11.604;2024-02-21T05:29:08;5.00;;;2.60;;
4051;SDS011;2040;50.924;11.604;2024-02-21T05:34:18;11.80;;;3.57;;
4051;SDS011;2040;50.924;11.604;2024-02-21T05:36:45;6.87;;;2.80;;
4051;SDS011;2040;50.924;11.604;2024-02-21T05:39:11;8.67;;;3.40;;
4051;SDS011;2040;50.924;11.604;2024-02-21T05:41:37;7.33;;;3.10;;
4051;SDS011;2040;50.924;11.604;2024-02-21T05:44:03;7.13;;;3.20;;
4051;SDS011;2040;50.924;11.604;2024-02-21T05:46:29;11.63;;;3.10;;
4051;SDS011;2040;50.924;11.604;2024-02-21T05:48:54;11.20;;;3.37;;
4051;SDS011;2040;50.924;11.604;2024-02-21T05:51:20;14.63;;;3.40;;
4051;SDS011;2040;50.924;11.604;2024-02-21T05:53:45;14.67;;;3.33;;
4051;SDS011;2040;50.924;11.604;2024-02-21T05:56:11;12.60;;;4.03;;
4051;SDS011;2040;50.924;11.604;2024-02-21T05:58:37;10.83;;;3.70;;
4051;SDS011;2040;50.924;11.604;2024-02-21T06:01:03;6.73;;;3.17;;
4051;SDS011;2040;50.924;11.604;2024-02-21T06:03:29;6.87;;;2.60;;
4051;SDS011;2040;50.924;11.604;2024-02-21T06:05:55;8.43;;;3.77;;
4051;SDS011;2040;50.924;11.604;2024-02-21T06:08:21;9.17;;;3.50;;
4051;SDS011;2040;50.924;11.604;2024-02-21T06:10:46;4.50;;;3.10;;
4051;SDS011;2040;50.924;11.604;2024-02-21T06:13:13;7.00;;;3.03;;
4051;SDS011;2040;50.924;11.604;2024-02-21T06:15:39;6.90;;;3.27;;
4051;SDS011;2040;50.924;11.604;2024-02-21T06:18:05;7.80;;;2.93;;
4051;SDS011;2040;50.924;11.604;2024-02-21T06:20:30;9.30;;;3.67;;
4051;SDS011;2040;50.924;11.604;2024-02-21T06:22:56;9.00;;;3.50;;
4051;SDS011;2040;50.924;11.604;2024-02-21T06:25:22;6.83;;;3.20;;
4051;SDS011;2040;50.924;11.604;2024-02-21T06:27:47;15.73;;;3.40;;
4051;SDS011;2040;50.924;11.604;2024-02-21T06:30:13;7.33;;;3.50;;
4051;SDS011;2040;50.924;11.604;2024-02-21T06:32:38;10.63;;;3.77;;
4051;SDS011;2040;50.924;11.604;2024-02-21T06:35:04;5.03;;;3.50;;
4051;SDS011;2040;50.924;11.604;2024-02-21T06:37:30;8.33;;;3.40;;
4051;SDS011;2040;50.924;11.604;2024-02-21T06:39:57;5.20;;;2.60;;
4051;SDS011;2040;50.924;11.604;2024-02-21T06:42:24;4.60;;;2.50;;
4051;SDS011;2040;50.924;11.604;2024-02-21T06:44:50;6.50;;;3.07;;
4051;SDS011;2040;50.924;11.604;2024-02-21T06:47:16;8.90;;;3.13;;
4051;SDS011;2040;50.924;11.604;2024-02-21T06:49:41;18.00;;;3.63;;
4051;SDS011;2040;50.924;11.604;2024-02-21T06:52:07;8.90;;;2.70;;
4051;SDS011;2040;50.924;11.604;2024-02-21T06:54:33;9.90;;;2.50;;
4051;SDS011;2040;50.924;11.604;2024-02-21T06:56:58;7.57;;;3.50;;
4051;SDS011;2040;50.924;11.604;2024-02-21T06:59:24;17.57;;;3.60;;
4051;SDS011;2040;50.924;11.604;2024-02-21T07:01:51;8.27;;;2.83;;
4051;SDS011;2040;50.924;11.604;2024-02-21T07:04:18;11.23;;;2.97;;
4051;SDS011;2040;50.924;11.604;2024-02-21T07:06:43;6.07;;;2.67;;
4051;SDS011;2040;50.924;11.604;2024-02-21T07:09:09;9.27;;;2.80;;
4051;SDS011;2040;50.924;11.604;2024-02-21T07:11:34;7.83;;;2.07;;
4051;SDS011;2040;50.924;11.604;2024-02-21T07:14:00;8.93;;;3.00;;
4051;SDS011;2040;50.924;11.604;2024-02-21T07:16:25;4.70;;;2.10;;
4051;SDS011;2040;50.924;11.604;2024-02-21T07:18:51;5.20;;;1.90;;
4051;SDS011;2040;50.924;11.604;2024-02-21T07:21:17;8.33;;;2.60;;
4051;SDS011;2040;50.924;11.604;2024-02-21T07:23:42;21.40;;;3.30;;
4051;SDS011;2040;50.924;11.604;2024-02-21T07:26:08;4.30;;;2.73;;
4051;SDS011;2040;50.924;11.604;2024-02-21T07:28:34;11.50;;;3.10;;
4051;SDS011;2040;50.924;11.604;2024-02-21T07:30:59;7.47;;;2.73;;
4051;SDS011;2040;50.924;11.604;2024-02-21T07:33:25;8.13;;;2.70;;
4051;SDS011;2040;50.924;11.604;2024-02-21T07:35:51;15.07;;;3.07;;
4051;SDS011;2040;50.924;11.604;2024-02-21T07:38:19;7.70;;;2.83;;
4051;SDS011;2040;50.924;11.604;2024-02-21T07:40:45;6.90;;;2.80;;
4051;SDS011;2040;50.924;11.604;2024-02-21T07:43:11;17.60;;;3.23;;
4051;SDS011;2040;50.924;11.604;2024-02-21T07:45:37;6.07;;;2.87;;
4051;SDS011;2040;50.924;11.604;2024-02-21T07:48:04;8.13;;;2.97;;
4051;SDS011;2040;50.924;11.604;2024-02-21T07:50:30;6.00;;;2.77;;
4051;SDS011;2040;50.924;11.604;2024-02-21T07:52:56;5.93;;;2.50;;
4051;SDS011;2040;50.924;11.604;2024-02-21T07:55:22;5.77;;;2.50;;
4051;SDS011;2040;50.924;11.604;2024-02-21T07:57:47;10.10;;;3.53;;
4051;SDS011;2040;50.924;11.604;2024-02-21T08:00:14;4.27;;;2.57;;
4051;SDS011;2040;50.924;11.604;2024-02-21T08:02:44;6.43;;;3.53;;
4051;SDS011;2040;50.924;11.604;2024-02-21T08:05:10;3.53;;;2.53;;
4051;SDS011;2040;50.924;11.604;2024-02-21T08:07:37;9.70;;;2.20;;
4051;SDS011;2040;50.924;11.604;2024-02-21T08:10:03;10.63;;;2.50;;
4051;SDS011;2040;50.924;11.604;2024-02-21T08:12:29;3.87;;;2.00;;
4051;SDS011;2040;50.924;11.604;2024-02-21T08:14:55;5.93;;;2.70;;
4051;SDS011;2040;50.924;11.604;2024-02-21T08:17:20;6.20;;;2.50;;
4051;SDS011;2040;50.924;11.604;2024-02-21T08:19:46;11.00;;;2.03;;
4051;SDS011;2040;50.924;11.604;2024-02-21T08:22:14;4.73;;;1.90;;
4051;SDS011;2040;50.924;11.604;2024-02-21T08:24:39;5.20;;;2.60;;
4051;SDS011;2040;50.924;11.604;2024-02-21T08:27:05;7.27;;;3.00;;
4051;SDS011;2040;50.924;11.604;2024-02-21T08:29:31;9.63;;;2.33;;
4051;SDS011;2040;50.924;11.604;2024-02-21T08:31:56;5.23;;;2.30;;
4051;SDS011;2040;50.924;11.604;2024-02-21T08:34:22;6.90;;;2.63;;
4051;SDS011;2040;50.924;11.604;2024-02-21T08:36:47;8.00;;;2.97;;
4051;SDS011;2040;50.924;11.604;2024-02-21T08:39:13;5.33;;;2.50;;
4051;SDS011;2040;50.924;11.604;2024-02-21T08:41:42;3.93;;;1.97;;
4051;SDS011;2040;50.924;11.604;2024-02-21T08:44:07;5.20;;;2.70;;
4051;SDS011;2040;50.924;11.604;2024-02-21T08:46:33;5.73;;;2.33;;
4051;SDS011;2040;50.924;11.604;2024-02-21T08:48:59;11.03;;;2.70;;
4051;SDS011;2040;50.924;11.604;2024-02-21T08:51:24;5.07;;;2.30;;
4051;SDS011;2040;50.924;11.604;2024-02-21T08:53:50;7.57;;;2.50;;
4051;SDS011;2040;50.924;11.604;2024-02-21T08:56:16;7.70;;;2.40;;
4051;SDS011;2040;50.924;11.604;2024-02-21T08:58:42;4.10;;;2.60;;
4051;SDS011;2040;50.924;11.604;2024-02-21T09:01:08;8.17;;;2.87;;
4051;SDS011;2040;50.924;11.604;2024-02-21T09:03:38;9.60;;;2.93;;
4051;SDS011;2040;50.924;11.604;2024-02-21T09:06:04;8.47;;;2.40;;
4051;SDS011;2040;50.924;11.604;2024-02-21T09:08:30;7.87;;;3.03;;
4051;SDS011;2040;50.924;11.604;2024-02-21T09:10:56;2.47;;;2.27;;
4051;SDS011;2040;50.924;11.604;2024-02-21T09:13:22;4.90;;;2.63;;
4051;SDS011;2040;50.924;11.604;2024-02-21T09:15:48;6.03;;;2.27;;
4051;SDS011;2040;50.924;11.604;2024-02-21T09:18:14;5.30;;;2.67;;
4051;SDS011;2040;50.924;11.604;2024-02-21T09:20:43;4.00;;;2.57;;
4051;SDS011;2040;50.924;11.604;2024-02-21T09:23:09;4.27;;;2.03;;
4051;SDS011;2040;50.924;11.604;2024-02-21T09:25:34;3.43;;;2.13;;
4051;SDS011;2040;50.924;11.604;2024-02-21T09:28:01;7.27;;;2.13;;
4051;SDS011;2040;50.924;11.604;2024-02-21T09:30:27;10.23;;;3.27;;
4051;SDS011;2040;50.924;11.604;2024-02-21T09:32:52;6.30;;;2.57;;
4051;SDS011;2040;50.924;11.604;2024-02-21T09:35:18;6.00;;;2.67;;
4051;SDS011;2040;50.924;11.604;2024-02-21T09:37:44;6.53;;;2.60;;
4051;SDS011;2040;50.924;11.604;2024-02-21T09:40:10;10.33;;;3.07;;
4051;SDS011;2040;50.924;11.604;2024-02-21T09:42:39;5.00;;;2.20;;
4051;SDS011;2040;50.924;11.604;2024-02-21T09:45:07;3.23;;;2.17;;
4051;SDS011;2040;50.924;11.604;2024-02-21T09:47:44;2.10;;;1.90;;
4051;SDS011;2040;50.924;11.604;2024-02-21T09:50:31;5.97;;;2.87;;
4051;SDS011;2040;50.924;11.604;2024-02-21T09:52:59;7.17;;;2.67;;
4051;SDS011;2040;50.924;11.604;2024-02-21T09:55:27;4.23;;;2.17;;
4051;SDS011;2040;50.924;11.604;2024-02-21T09:57:57;6.97;;;2.53;;
4051;SDS011;2040;50.924;11.604;2024-02-21T10:00:23;3.80;;;2.37;;
4051;SDS011;2040;50.924;11.604;2024-02-21T10:02:49;7.20;;;2.13;;
4051;SDS011;2040;50.924;11.604;2024-02-21T10:05:15;4.57;;;2.20;;
4051;SDS011;2040;50.924;11.604;2024-02-21T10:07:41;6.57;;;2.13;;
4051;SDS011;2040;50.924;11.604;2024-02-21T10:10:07;5.40;;;2.27;;
4051;SDS011;2040;50.924;11.604;2024-02-21T10:12:33;5.67;;;2.43;;
4051;SDS011;2040;50.924;11.604;2024-02-21T10:15:05;3.20;;;1.93;;
4051;SDS011;2040;50.924;11.604;2024-02-21T10:17:34;4.57;;;1.80;;
4051;SDS011;2040;50.924;11.604;2024-02-21T10:20:11;7.40;;;2.40;;
4051;SDS011;2040;50.924;11.604;2024-02-21T10:22:37;4.80;;;2.50;;
4051;SDS011;2040;50.924;11.604;2024-02-21T10:25:10;3.30;;;1.80;;
4051;SDS011;2040;50.924;11.604;2024-02-21T10:27:38;3.50;;;2.60;;
4051;SDS011;2040;50.924;11.604;2024-02-21T10:30:07;7.40;;;2.20;;
4051;SDS011;2040;50.924;11.604;2024-02-21T10:32:37;6.10;;;2.00;;
4051;SDS011;2040;50.924;11.604;2024-02-21T10:35:14;4.90;;;1.80;;
4051;SDS011;2040;50.924;11.604;2024-02-21T10:37:49;2.60;;;1.57;;
4051;SDS011;2040;50.924;11.604;2024-02-21T10:40:20;5.40;;;1.90;;
4051;SDS011;2040;50.924;11.604;2024-02-21T10:42:47;2.03;;;1.70;;
4051;SDS011;2040;50.924;11.604;2024-02-21T10:45:14;4.47;;;2.30;;
4051;SDS011;2040;50.924;11.604;2024-02-21T10:47:40;2.83;;;1.60;;
4051;SDS011;2040;50.924;11.604;2024-02-21T10:50:13;6.23;;;1.83;;
4051;SDS011;2040;50.924;11.604;2024-02-21T10:52:48;3.93;;;1.87;;
4051;SDS011;2040;50.924;11.604;2024-02-21T10:55:29;3.80;;;1.83;;
4051;SDS011;2040;50.924;11.604;2024-02-21T10:58:01;2.30;;;1.60;;
4051;SDS011;2040;50.924;11.604;2024-02-21T11:00:27;4.53;;;1.80;;
4051;SDS011;2040;50.924;11.604;2024-02-21T11:02:56;4.33;;;2.10;;
4051;SDS011;2040;50.924;11.604;2024-02-21T11:05:23;4.50;;;2.03;;
4051;SDS011;2040;50.924;11.604;2024-02-21T11:07:49;4.33;;;2.50;;
4051;SDS011;2040;50.924;11.604;2024-02-21T11:10:25;6.20;;;2.30;;
4051;SDS011;2040;50.924;11.604;2024-02-21T11:13:09;6.20;;;2.33;;
4051;SDS011;2040;50.924;11.604;2024-02-21T11:15:36;3.20;;;2.30;;
4051;SDS011;2040;50.924;11.604;2024-02-21T11:18:01;3.40;;;2.00;;
4051;SDS011;2040;50.924;11.604;2024-02-21T11:20:36;3.70;;;2.13;;
4051;SDS011;2040;50.924;11.604;2024-02-21T11:23:03;2.93;;;2.50;;
4051;SDS011;2040;50.924;11.604;2024-02-21T11:25:29;3.10;;;2.07;;
4051;SDS011;2040;50.924;11.604;2024-02-21T11:28:02;3.10;;;2.07;;
4051;SDS011;2040;50.924;11.604;2024-02-21T11:30:35;4.03;;;2.33;;
4051;SDS011;2040;50.924;11.604;2024-02-21T11:33:03;9.30;;;2.13;;
4051;SDS011;2040;50.924;11.604;2024-02-21T11:35:31;3.17;;;1.70;;
4051;SDS011;2040;50.924;11.604;2024-02-21T11:38:07;5.63;;;2.27;;
4051;SDS011;2040;50.924;11.604;2024-02-21T11:40:34;4.73;;;2.40;;
4051;SDS011;2040;50.924;11.604;2024-02-21T11:43:00;4.30;;;2.00;;
4051;SDS011;2040;50.924;11.604;2024-02-21T11:45:25;5.10;;;1.73;;
4051;SDS011;2040;50.924;11.604;2024-02-21T11:47:52;5.37;;;2.50;;
4051;SDS011;2040;50.924;11.604;2024-02-21T11:50:17;3.17;;;2.03;;
4051;SDS011;2040;50.924;11.604;2024-02-21T11:52:44;4.40;;;1.77;;
4051;SDS011;2040;50.924;11.604;2024-02-21T11:55:10;10.30;;;2.60;;
4051;SDS011;2040;50.924;11.604;2024-02-21T11:57:37;7.50;;;2.40;;
4051;SDS011;2040;50.924;11.604;2024-02-21T12:02:45;5.00;;;1.83;;
4051;SDS011;2040;50.924;11.604;2024-02-21T12:05:11;6.67;;;1.70;;
4051;SDS011;2040;50.924;11.604;2024-02-21T12:07:37;3.27;;;1.90;;
4051;SDS011;2040;50.924;11.604;2024-02-21T12:10:09;5.00;;;1.70;;
4051;SDS011;2040;50.924;11.604;2024-02-21T12:12:35;4.83;;;1.93;;
4051;SDS011;2040;50.924;11.604;2024-02-21T12:15:05;6.00;;;1.80;;
4051;SDS011;2040;50.924;11.604;2024-02-21T12:17:34;4.90;;;1.40;;
4051;SDS011;2040;50.924;11.604;2024-02-21T12:20:01;3.40;;;1.43;;
4051;SDS011;2040;50.924;11.604;2024-02-21T12:22:31;4.00;;;1.87;;
4051;SDS011;2040;50.924;11.604;2024-02-21T12:24:57;6.23;;;1.90;;
4051;SDS011;2040;50.924;11.604;2024-02-21T12:27:23;6.70;;;1.77;;
4051;SDS011;2040;50.924;11.604;2024-02-21T12:29:50;4.27;;;1.60;;
4051;SDS011;2040;50.924;11.604;2024-02-21T12:32:16;5.20;;;1.23;;
4051;SDS011;2040;50.924;11.604;2024-02-21T12:34:41;2.43;;;1.53;;
4051;SDS011;2040;50.924;11.604;2024-02-21T12:37:07;3.90;;;1.47;;
4051;SDS011;2040;50.924;11.604;2024-02-21T12:39:32;9.30;;;2.40;;
4051;SDS011;2040;50.924;11.604;2024-02-21T12:41:58;3.40;;;1.73;;
4051;SDS011;2040;50.924;11.604;2024-02-21T12:44:23;3.40;;;1.70;;
4051;SDS011;2040;50.924;11.604;2024-02-21T12:46:49;3.07;;;2.00;;
4051;SDS011;2040;50.924;11.604;2024-02-21T12:49:18;9.07;;;2.17;;
4051;SDS011;2040;50.924;11.604;2024-02-21T12:51:44;4.80;;;2.17;;
4051;SDS011;2040;50.924;11.604;2024-02-21T12:54:12;2.57;;;1.57;;
4051;SDS011;2040;50.924;11.604;2024-02-21T12:56:37;2.50;;;1.97;;
4051;SDS011;2040;50.924;11.604;2024-02-21T12:59:04;4.40;;;2.00;;
4051;SDS011;2040;50.924;11.604;2024-02-21T13:01:30;3.53;;;1.40;;
4051;SDS011;2040;50.924;11.604;2024-02-21T13:03:56;7.50;;;1.80;;
4051;SDS011;2040;50.924;11.604;2024-02-21T13:06:22;3.50;;;1.60;;
4051;SDS011;2040;50.924;11.604;2024-02-21T13:08:48;2.77;;;2.20;;
4051;SDS011;2040;50.924;11.604;2024-02-21T13:11:15;12.83;;;1.90;;
4051;SDS011;2040;50.924;11.604;2024-02-21T13:13:41;2.53;;;1.97;;
4051;SDS011;2040;50.924;11.604;2024-02-21T13:16:07;9.63;;;2.43;;
4051;SDS011;2040;50.924;11.604;2024-02-21T13:18:32;5.03;;;1.63;;
4051;SDS011;2040;50.924;11.604;2024-02-21T13:21:00;3.07;;;1.77;;
4051;SDS011;2040;50.924;11.604;2024-02-21T13:23:25;4.30;;;2.20;;
4051;SDS011;2040;50.924;11.604;2024-02-21T13:25:51;4.90;;;1.73;;
4051;SDS011;2040;50.924;11.604;2024-02-21T13:28:17;2.53;;;1.70;;
4051;SDS011;2040;50.924;11.604;2024-02-21T13:30:42;5.13;;;1.80;;
4051;SDS011;2040;50.924;11.604;2024-02-21T13:33:08;3.77;;;1.73;;
4051;SDS011;2040;50.924;11.604;2024-02-21T13:35:35;2.03;;;1.17;;
4051;SDS011;2040;50.924;11.604;2024-02-21T13:38:01;8.37;;;1.47;;
4051;SDS011;2040;50.924;11.604;2024-02-21T13:40:27;10.10;;;1.77;;
4051;SDS011;2040;50.924;11.604;2024-02-21T13:42:53;1.80;;;1.43;;
4051;SDS011;2040;50.924;11.604;2024-02-21T13:45:19;5.13;;;1.37;;
4051;SDS011;2040;50.924;11.604;2024-02-21T13:47:44;5.30;;;1.67;;
4051;SDS011;2040;50.924;11.604;2024-02-21T13:50:10;1.90;;;1.33;;
4051;SDS011;2040;50.924;11.604;2024-02-21T13:52:42;2.00;;;1.30;;
4051;SDS011;2040;50.924;11.604;2024-02-21T13:55:08;2.13;;;1.43;;
4051;SDS011;2040;50.924;11.604;2024-02-21T13:57:37;9.37;;;1.37;;
4051;SDS011;2040;50.924;11.604;2024-02-21T14:00:03;1.93;;;1.10;;
4051;SDS011;2040;50.924;11.604;2024-02-21T14:02:29;6.10;;;1.50;;
4051;SDS011;2040;50.924;11.604;2024-02-21T14:04:55;7.77;;;1.67;;
4051;SDS011;2040;50.924;11.604;2024-02-21T14:07:21;4.10;;;1.40;;
4051;SDS011;2040;50.924;11.604;2024-02-21T14:09:47;5.60;;;1.43;;
4051;SDS011;2040;50.924;11.604;2024-02-21T14:12:12;2.93;;;1.37;;
4051;SDS011;2040;50.924;11.604;2024-02-21T14:14:38;1.33;;;1.17;;
4051;SDS011;2040;50.924;11.604;2024-02-21T14:17:04;3.60;;;1.40;;
4051;SDS011;2040;50.924;11.604;2024-02-21T14:19:29;3.30;;;1.63;;
4051;SDS011;2040;50.924;11.604;2024-02-21T14:21:55;1.83;;;1.10;;
4051;SDS011;2040;50.924;11.604;2024-02-21T14:24:22;2.93;;;1.30;;
4051;SDS011;2040;50.924;11.604;2024-02-21T14:26:48;2.50;;;1.30;;
4051;SDS011;2040;50.924;11.604;2024-02-21T14:29:13;4.10;;;1.40;;
4051;SDS011;2040;50.924;11.604;2024-02-21T14:31:39;4.33;;;1.50;;
4051;SDS011;2040;50.924;11.604;2024-02-21T14:34:05;5.47;;;1.23;;
4051;SDS011;2040;50.924;11.604;2024-02-21T14:36:32;6.00;;;2.20;;
4051;SDS011;2040;50.924;11.604;2024-02-21T14:38:58;2.50;;;1.20;;
4051;SDS011;2040;50.924;11.604;2024-02-21T14:41:24;2.87;;;1.50;;
4051;SDS011;2040;50.924;11.604;2024-02-21T14:43:49;3.30;;;1.57;;
4051;SDS011;2040;50.924;11.604;2024-02-21T14:46:15;4.53;;;1.60;;
4051;SDS011;2040;50.924;11.604;2024-02-21T14:48:40;2.33;;;1.37;;
4051;SDS011;2040;50.924;11.604;2024-02-21T14:51:06;2.73;;;1.27;;
4051;SDS011;2040;50.924;11.604;2024-02-21T14:53:32;4.17;;;1.27;;
4051;SDS011;2040;50.924;11.604;2024-02-21T14:55:57;2.83;;;1.37;;
4051;SDS011;2040;50.924;11.604;2024-02-21T14:58:23;4.57;;;1.67;;